Time;durP1;ratioP1;P1;durP2;ratioP2;P2;SDS_P1;SDS_P2;PMS_P1;PMS_P2;Temp;Humidity;BMP_temperature;BMP_pressure;BME280_temperature;BME280_humidity;BME280_pressure;Samples;Min_cycle;Max_cycle;Signal;HPM_P1;HPM_P2
2022/08/12 00:43:42;;;;;;;4.20;2.03;;;;;;;21.28;37.63;99247.53;5213132;28;20055;-84
2022/08/12 00:46:49;;;;;;;2.20;2.00;;;;;;;21.37;37.59;99250.06;5211846;28;20044;-84
2022/08/12 00:49:41;;;;;;;3.95;1.92;;;;;;;21.28;37.57;99257.47;5230012;28;20112;-83
2022/08/12 00:52:39;;;;;;;3.22;1.80;;;;;;;21.40;37.47;99238.84;5233820;28;20052;-83
2022/08/12 00:55:30;;;;;;;6.10;2.10;;;;;;;21.27;37.53;99236.94;5212079;28;20040;-83
2022/08/12 00:58:24;;;;;;;3.22;2.20;;;;;;;21.20;37.91;99238.81;5233485;28;20636;-83
2022/08/12 01:01:15;;;;;;;6.80;2.00;;;;;;;21.01;38.44;99249.38;5241455;28;20448;-83
2022/08/12 01:13:46;;;;;;;3.65;2.20;;;;;;;20.52;39.84;99255.88;5219912;28;20056;-83
2022/08/12 01:16:37;;;;;;;2.92;2.33;;;;;;;20.23;40.55;99240.81;5233626;28;20044;-83
2022/08/12 01:19:28;;;;;;;4.00;2.40;;;;;;;20.23;40.46;99240.81;5224415;28;20052;-84
2022/08/12 01:22:33;;;;;;;2.90;2.28;;;;;;;20.40;40.31;99252.06;5206782;28;20510;-84
2022/08/12 01:25:28;;;;;;;6.25;2.20;;;;;;;20.13;40.70;99234.94;5241850;28;20091;-84
2022/08/12 01:28:19;;;;;;;2.05;1.80;;;;;;;20.11;41.05;99243.22;5218554;28;20049;-84
2022/08/12 01:31:11;;;;;;;4.60;2.25;;;;;;;20.15;40.80;99260.66;5209287;28;20127;-84
2022/08/12 01:34:08;;;;;;;6.78;2.30;;;;;;;19.93;41.27;99243.78;5231836;28;20049;-84
2022/08/12 01:37:23;;;;;;;2.55;2.10;;;;;;;20.40;39.88;99262.84;5205269;28;20070;-84
2022/08/12 01:40:17;;;;;;;5.07;2.20;;;;;;;20.35;40.23;99263.44;5222445;28;20221;-84
2022/08/12 01:43:27;;;;;;;2.67;2.05;;;;;;;20.22;40.08;99249.09;5226425;28;20057;-84
2022/08/12 01:46:42;;;;;;;3.20;2.17;;;;;;;20.17;40.15;99241.63;5221019;28;20120;-84
2022/08/12 01:49:44;;;;;;;2.40;2.00;;;;;;;20.27;40.27;99247.47;5223077;28;20878;-84
2022/08/12 01:52:55;;;;;;;3.08;2.35;;;;;;;20.23;40.39;99245.34;5227741;28;20055;-86
2022/08/12 01:55:46;;;;;;;2.88;2.20;;;;;;;20.02;41.13;99230.13;5228845;28;20076;-84
2022/08/12 02:01:56;;;;;;;3.33;2.40;;;;;;;19.44;43.53;99228.50;5218510;28;20190;-83
2022/08/12 02:11:47;;;;;;;4.20;2.10;;;;;;;19.29;42.93;99237.69;5213728;28;20078;-83
2022/08/12 02:15:00;;;;;;;7.03;2.45;;;;;;;19.55;43.63;99262.09;5224482;28;21380;-84
2022/08/12 02:18:02;;;;;;;3.63;2.38;;;;;;;19.26;43.10;99241.56;5215887;28;20090;-84
2022/08/12 02:21:02;;;;;;;3.45;2.28;;;;;;;19.26;43.45;99255.03;5224231;28;20067;-84
2022/08/12 02:23:54;;;;;;;3.88;2.40;;;;;;;19.01;43.85;99235.78;5210614;28;20048;-84
2022/08/12 02:26:47;;;;;;;4.25;2.10;;;;;;;19.14;43.60;99243.13;5200834;28;20118;-84
2022/08/12 02:29:41;;;;;;;4.22;2.17;;;;;;;18.86;43.62;99243.06;5219971;28;20422;-85
2022/08/12 02:32:38;;;;;;;3.13;2.20;;;;;;;18.78;44.21;99228.75;5206683;28;20079;-85
2022/08/12 02:35:34;;;;;;;4.95;2.40;;;;;;;18.94;43.93;99251.00;5198824;28;20049;-85
2022/08/12 02:38:26;;;;;;;5.63;2.30;;;;;;;18.84;44.69;99250.47;5203293;28;20072;-85
2022/08/12 02:41:20;;;;;;;3.53;2.30;;;;;;;18.92;43.77;99236.94;5201485;28;20060;-85
2022/08/12 02:44:14;;;;;;;5.85;2.10;;;;;;;18.81;44.75;99251.72;5215248;28;20187;-85
2022/08/12 02:47:07;;;;;;;4.55;2.35;;;;;;;18.49;45.24;99234.16;5200133;28;20473;-85
2022/08/12 02:50:19;;;;;;;3.67;2.55;;;;;;;18.51;45.29;99227.59;5200340;28;20052;-85
2022/08/12 02:53:10;;;;;;;3.10;2.30;;;;;;;18.54;45.11;99227.22;5214764;28;20056;-85
2022/08/12 02:56:02;;;;;;;3.20;2.28;;;;;;;18.52;45.00;99237.31;5206175;28;20048;-85
2022/08/12 02:58:54;;;;;;;3.63;2.40;;;;;;;18.44;44.98;99233.88;5215353;28;20074;-85
2022/08/12 03:01:48;;;;;;;5.53;2.53;;;;;;;18.51;45.12;99229.44;5223567;28;20052;-85
2022/08/12 03:04:46;;;;;;;3.38;2.35;;;;;;;18.61;45.21;99234.50;5214194;28;20060;-85
2022/08/12 03:07:45;;;;;;;3.97;2.20;;;;;;;18.76;44.14;99220.03;5247962;28;20051;-84
2022/08/12 03:10:53;;;;;;;3.60;2.33;;;;;;;19.02;43.89;99205.19;5242025;28;20083;-84
2022/08/12 03:13:49;;;;;;;5.13;2.30;;;;;;;19.16;43.13;99214.19;5235003;28;20064;-84
2022/08/12 03:16:40;;;;;;;4.28;2.30;;;;;;;19.18;43.50;99221.06;5205488;28;20100;-84
2022/08/12 03:19:31;;;;;;;3.88;2.30;;;;;;;19.45;42.65;99222.09;5207717;28;20044;-84
2022/08/12 03:22:23;;;;;;;6.10;2.45;;;;;;;19.31;42.33;99198.81;5231509;28;20430;-84
2022/08/12 03:25:23;;;;;;;6.28;2.30;;;;;;;19.52;42.56;99232.91;5213443;28;20118;-84
2022/08/12 03:28:49;;;;;;;3.10;2.15;;;;;;;19.48;42.30;99232.47;5223438;28;20122;-84
2022/08/12 03:31:29;;;;;;;2.85;2.38;;;;;;;19.45;42.05;99238.22;5224946;28;20153;-83
2022/08/12 03:34:28;;;;;;;6.85;2.08;;;;;;;19.11;43.03;99211.28;5220109;28;20107;-84
2022/08/12 03:37:19;;;;;;;4.88;2.50;;;;;;;18.91;43.66;99203.03;5231812;28;20064;-85
2022/08/12 03:41:32;;;;;;;8.32;2.53;;;;;;;18.75;44.44;99229.13;5214662;28;20053;-84
2022/08/12 04:02:38;;;;;;;3.58;2.40;;;;;;;17.82;47.49;99236.00;5220539;28;20095;-81
2022/08/12 04:05:31;;;;;;;4.38;3.03;;;;;;;17.94;47.23;99230.16;5215854;28;20048;-82
2022/08/12 04:08:43;;;;;;;4.47;2.90;;;;;;;17.95;46.47;99235.34;5222247;28;20068;-82
2022/08/12 04:14:47;;;;;;;3.30;2.78;;;;;;;17.94;47.03;99249.75;5217845;28;20502;-82
2022/08/12 04:17:39;;;;;;;5.45;2.50;;;;;;;17.75;47.66;99250.31;5225515;28;20484;-81
2022/08/12 04:20:49;;;;;;;8.57;3.08;;;;;;;17.76;47.50;99235.88;5234328;28;20041;-82
2022/08/12 04:23:43;;;;;;;7.10;2.67;;;;;;;17.55;47.90;99240.09;5235970;28;20672;-82
2022/08/12 04:26:39;;;;;;;8.18;2.63;;;;;;;17.58;48.35;99238.88;5207705;28;20049;-81
2022/08/12 04:29:30;;;;;;;3.72;2.80;;;;;;;17.57;48.94;99254.13;5240120;28;20068;-81
2022/08/12 04:32:41;;;;;;;3.55;2.67;;;;;;;17.50;49.22;99247.03;5240093;28;20439;-82
2022/08/12 04:35:34;;;;;;;4.20;2.60;;;;;;;17.42;49.09;99228.31;5231448;28;20116;-82
2022/08/12 04:38:25;;;;;;;4.28;2.90;;;;;;;17.43;48.82;99232.69;5230515;28;20080;-82
2022/08/12 04:41:17;;;;;;;4.85;3.10;;;;;;;17.74;48.51;99244.09;5235405;28;20519;-82
2022/08/12 04:44:08;;;;;;;3.90;2.90;;;;;;;17.87;48.43;99226.56;5225313;28;20053;-82
2022/08/12 04:46:59;;;;;;;4.35;2.65;;;;;;;17.59;49.49;99237.88;5238499;28;20132;-81
2022/08/12 04:49:49;;;;;;;3.35;2.63;;;;;;;17.55;49.95;99256.19;5224798;28;20284;-81
2022/08/12 04:52:40;;;;;;;5.05;2.80;;;;;;;17.68;49.93;99252.88;5224536;28;20056;-81
2022/08/12 04:55:33;;;;;;;3.65;3.17;;;;;;;17.73;49.46;99250.47;5235353;28;20059;-82
2022/08/12 04:58:24;;;;;;;7.13;2.90;;;;;;;17.73;48.68;99249.63;5214458;28;20454;-84
2022/08/12 05:01:19;;;;;;;4.10;3.00;;;;;;;17.77;48.97;99267.88;5219862;28;20053;-82
2022/08/12 05:04:10;;;;;;;4.60;2.70;;;;;;;17.50;50.38;99249.69;5221818;28;20099;-84
2022/08/12 05:07:01;;;;;;;6.00;2.97;;;;;;;17.48;50.60;99257.06;5234192;28;20048;-84
2022/08/12 05:09:52;;;;;;;6.68;2.78;;;;;;;17.47;50.49;99250.06;5227520;28;20106;-84
2022/08/12 05:12:56;;;;;;;11.75;3.75;;;;;;;17.66;50.51;99272.84;5228942;28;20099;-84
2022/08/12 05:15:47;;;;;;;11.90;4.10;;;;;;;17.48;51.04;99257.06;5227521;28;20052;-81
2022/08/12 05:18:54;;;;;;;21.73;4.00;;;;;;;17.55;50.21;99271.44;5214786;28;20063;-83
2022/08/12 05:21:45;;;;;;;22.30;3.97;;;;;;;17.52;51.05;99259.22;5228093;28;20055;-82
2022/08/12 05:24:36;;;;;;;13.70;3.63;;;;;;;17.67;51.17;99272.66;5203998;28;20056;-82
2022/08/12 05:27:27;;;;;;;12.63;3.78;;;;;;;17.67;51.44;99275.34;5214938;28;20528;-82
2022/08/12 05:30:20;;;;;;;5.75;3.35;;;;;;;17.56;52.04;99257.03;5217869;28;20052;-81
2022/08/12 05:33:12;;;;;;;12.13;3.63;;;;;;;17.68;51.29;99239.47;5229179;28;20052;-82
2022/08/12 05:36:07;;;;;;;9.80;3.88;;;;;;;17.87;50.81;99264.09;5231671;28;20506;-82
2022/08/12 05:38:58;;;;;;;8.57;3.38;;;;;;;17.96;50.57;99263.84;5229405;28;20047;-81
2022/08/12 05:41:49;;;;;;;9.55;3.63;;;;;;;17.86;50.44;99257.09;5210280;28;20053;-81
2022/08/12 05:44:39;;;;;;;3.92;2.90;;;;;;;17.88;50.82;99271.13;5221980;28;20041;-82
2022/08/12 05:47:29;;;;;;;10.30;3.40;;;;;;;17.99;50.53;99279.56;5229167;28;20052;-81
2022/08/12 05:50:40;;;;;;;11.60;3.42;;;;;;;18.16;49.65;99295.50;5197148;28;20056;-81
2022/08/12 05:53:31;;;;;;;9.98;3.53;;;;;;;18.07;50.25;99275.94;5228256;28;20137;-81
2022/08/12 05:56:23;;;;;;;10.95;3.60;;;;;;;18.29;49.76;99290.31;5206351;28;20095;-84
2022/08/12 05:59:13;;;;;;;9.85;3.70;;;;;;;18.34;49.60;99303.97;5208383;28;20064;-84
2022/08/12 06:02:06;;;;;;;13.40;3.63;;;;;;;18.37;49.82;99278.63;5240631;28;20048;-87
2022/08/12 06:05:00;;;;;;;8.88;2.67;;;;;;;18.52;49.08;99290.19;5224268;28;20060;-83
2022/08/12 06:07:54;;;;;;;13.30;3.70;;;;;;;18.78;48.19;99300.44;5210105;28;20134;-84
2022/08/12 06:10:51;;;;;;;7.63;3.13;;;;;;;18.83;48.35;99275.69;5224602;28;20049;-84
2022/08/12 06:13:42;;;;;;;8.82;3.10;;;;;;;18.83;48.42;99273.00;5225809;28;20499;-84
2022/08/12 06:16:45;;;;;;;9.50;2.90;;;;;;;19.09;48.99;99296.63;5228000;28;20118;-84
2022/08/12 06:19:36;;;;;;;7.45;2.90;;;;;;;19.18;48.68;99304.38;5239182;28;20052;-84
2022/08/12 06:22:46;;;;;;;13.35;3.30;;;;;;;19.48;49.06;99315.81;5220881;28;20055;-84
2022/08/12 06:25:38;;;;;;;12.57;2.97;;;;;;;19.56;46.98;99289.81;5215087;28;20107;-84
2022/08/12 06:28:29;;;;;;;9.52;2.95;;;;;;;19.83;46.50;99304.31;5205300;28;20075;-83
2022/08/12 06:31:20;;;;;;;5.45;2.72;;;;;;;19.85;46.55;99291.53;5195698;28;20170;-84
2022/08/12 06:34:18;;;;;;;6.70;3.00;;;;;;;20.02;47.21;99308.19;5216737;28;20127;-83
2022/08/12 06:37:37;;;;;;;11.13;3.13;;;;;;;20.19;47.13;99307.66;5209146;28;20055;-83
2022/08/12 06:43:36;;;;;;;5.15;2.80;;;;;;;20.94;43.81;99302.44;5211336;22;20721;-68
2022/08/12 06:46:46;;;;;;;12.10;2.80;;;;;;;21.24;43.01;99302.91;5176989;28;20042;-72
2022/08/12 06:49:37;;;;;;;10.30;3.28;;;;;;;21.52;42.88;99302.78;5181421;28;20421;-70
2022/08/12 06:52:30;;;;;;;5.47;2.58;;;;;;;21.70;41.67;99301.31;5179885;28;20076;-69
2022/08/12 06:55:21;;;;;;;10.13;2.72;;;;;;;21.73;43.30;99290.09;5179234;28;20590;-69
2022/08/12 06:58:13;;;;;;;6.93;2.40;;;;;;;22.17;40.99;99281.31;5181481;28;20134;-70
2022/08/12 07:01:04;;;;;;;6.35;2.58;;;;;;;22.26;41.28;99288.16;5180106;28;20535;-70
2022/08/12 07:03:54;;;;;;;5.57;2.70;;;;;;;22.57;40.30;99283.06;5182246;28;20124;-69
2022/08/12 07:06:58;;;;;;;5.33;2.20;;;;;;;22.90;39.61;99291.00;5179876;28;20519;-70
2022/08/12 07:09:50;;;;;;;6.70;2.45;;;;;;;23.10;39.15;99293.63;5185919;28;20089;-69
2022/08/12 07:12:56;;;;;;;3.00;2.05;;;;;;;23.42;38.57;99295.28;5180360;28;20065;-72
2022/08/12 07:15:46;;;;;;;4.28;2.05;;;;;;;23.47;37.71;99296.50;5185195;28;20143;-70
2022/08/12 07:18:37;;;;;;;2.83;2.20;;;;;;;23.75;38.43;99287.97;5187882;28;20408;-71
2022/08/12 07:21:32;;;;;;;5.82;2.00;;;;;;;23.84;38.03;99292.03;5178252;28;20080;-70
2022/08/12 07:25:29;;;;;;;6.72;2.65;;;;;;;24.29;36.74;99294.50;5182357;28;20057;-69
2022/08/12 07:27:53;;;;;;;2.45;2.10;;;;;;;24.54;36.72;99289.88;5176322;28;20061;-68
2022/08/12 07:30:47;;;;;;;5.95;2.30;;;;;;;24.75;35.79;99283.13;5185781;28;20540;-69
2022/08/12 07:33:40;;;;;;;4.13;2.03;;;;;;;25.27;36.18;99293.50;5176873;28;20053;-70
2022/08/12 07:36:32;;;;;;;5.60;2.45;;;;;;;25.52;35.10;99291.38;5180801;28;20129;-71
2022/08/12 07:39:23;;;;;;;2.58;2.22;;;;;;;26.64;33.20;99286.88;5180918;28;20482;-68
2022/08/12 07:42:13;;;;;;;5.88;2.30;;;;;;;27.94;30.57;99284.28;5180623;28;20526;-68
2022/08/12 07:45:06;;;;;;;7.25;3.03;;;;;;;28.84;29.77;99282.19;5178189;28;20057;-68
2022/08/12 07:47:56;;;;;;;3.83;1.90;;;;;;;29.83;28.08;99292.69;5181030;28;20080;-70
2022/08/12 07:50:46;;;;;;;3.78;2.20;;;;;;;30.24;28.30;99282.06;5169120;28;20152;-68
2022/08/12 07:53:38;;;;;;;3.00;1.83;;;;;;;30.77;27.35;99290.22;5170936;28;20504;-70
2022/08/12 07:56:48;;;;;;;3.17;2.47;;;;;;;31.26;26.25;99282.38;5187461;28;20082;-70
2022/08/12 07:59:39;;;;;;;3.38;2.08;;;;;;;31.64;26.17;99280.22;5169941;28;20200;-71
2022/08/12 08:02:32;;;;;;;6.68;2.20;;;;;;;31.69;25.47;99273.91;5173370;28;20081;-70
2022/08/12 08:05:27;;;;;;;4.65;1.75;;;;;;;32.29;24.61;99272.97;5184760;28;20057;-70
2022/08/12 08:08:25;;;;;;;3.95;1.95;;;;;;;32.69;24.42;99281.34;5177035;28;20175;-71
2022/08/12 08:14:32;;;;;;;4.35;1.95;;;;;;;32.61;23.89;99266.28;5178360;28;20428;-70
2022/08/12 08:17:24;;;;;;;4.00;2.10;;;;;;;33.00;24.65;99259.22;5181802;28;20065;-70
2022/08/12 08:20:14;;;;;;;5.30;1.83;;;;;;;33.07;23.25;99260.53;5186546;28;20056;-69
2022/08/12 08:23:16;;;;;;;3.85;1.90;;;;;;;33.20;23.37;99254.41;5188410;28;20068;-68
2022/08/12 08:26:08;;;;;;;6.38;1.90;;;;;;;33.73;22.79;99261.13;5177203;28;20137;-69
2022/08/12 08:28:58;;;;;;;4.15;1.92;;;;;;;33.75;22.47;99253.44;5179645;28;20149;-70
2022/08/12 08:31:53;;;;;;;3.85;2.03;;;;;;;34.20;21.84;99263.13;5178243;28;20195;-69
2022/08/12 08:34:45;;;;;;;6.55;1.92;;;;;;;33.17;23.40;99263.22;5186419;28;20049;-69
2022/08/12 08:37:45;;;;;;;1.67;1.58;;;;;;;32.42;23.40;99268.00;5186353;28;20496;-69
2022/08/12 08:43:48;;;;;;;2.90;1.88;;;;;;;33.66;21.43;99262.28;5179887;28;20058;-69
2022/08/12 08:46:43;;;;;;;2.15;1.73;;;;;;;34.50;22.04;99264.69;5179397;28;20057;-69
2022/08/12 08:49:35;;;;;;;8.57;1.88;;;;;;;33.60;22.44;99263.44;5185031;28;20045;-69
2022/08/12 08:52:26;;;;;;;3.15;1.50;;;;;;;34.26;22.38;99245.44;5176926;28;20064;-70
2022/08/12 08:55:30;;;;;;;2.20;1.80;;;;;;;35.36;21.48;99250.78;5178905;28;20180;-70
2022/08/12 08:58:44;;;;;;;3.40;1.60;;;;;;;34.59;19.95;99256.63;5182585;28;20046;-71
2022/08/12 09:01:33;;;;;;;;;;;;;;;33.73;22.48;99250.94;5182586;28;20108;-70
2022/08/12 09:04:27;;;;;;;2.20;1.90;;;;;;;33.63;20.52;99260.13;5188966;28;19935;-71
2022/08/12 09:07:46;;;;;;;1.98;1.50;;;;;;;33.16;22.75;99241.53;5176463;28;20107;-71
2022/08/12 09:10:57;;;;;;;5.82;1.70;;;;;;;33.94;22.20;99251.53;5174739;28;20134;-70
2022/08/12 09:13:49;;;;;;;1.88;1.70;;;;;;;33.58;21.37;99251.94;5174872;28;20128;-71
2022/08/12 09:16:59;;;;;;;3.20;1.73;;;;;;;34.99;20.75;99241.44;5176061;28;20171;-71
2022/08/12 09:19:49;;;;;;;6.13;1.63;;;;;;;35.18;19.98;99230.44;5174379;28;20120;-72
2022/08/12 09:23:01;;;;;;;2.22;1.60;;;;;;;34.99;20.42;99246.13;5174102;28;20511;-72
2022/08/12 09:26:14;;;;;;;4.80;1.60;;;;;;;34.55;20.51;99233.56;5176357;28;20054;-71
2022/08/12 09:29:07;;;;;;;6.30;1.48;;;;;;;32.80;21.51;99228.00;5175371;28;20050;-72
2022/08/12 09:32:05;;;;;;;1.60;1.50;;;;;;;34.27;20.22;99235.25;5176220;28;20064;-71
2022/08/12 09:34:59;;;;;;;4.07;1.63;;;;;;;33.82;19.96;99237.41;5190903;28;20049;-70
2022/08/12 09:37:54;;;;;;;4.40;1.63;;;;;;;31.84;23.76;99224.53;5174407;28;20849;-71
2022/08/12 09:40:49;;;;;;;2.05;1.73;;;;;;;32.34;21.47;99230.16;5181916;28;20555;-71
2022/08/12 09:47:29;;;;;;;1.92;1.42;;;;;;;31.97;21.63;99223.16;5174614;28;20052;-68
2022/08/12 09:50:23;;;;;;;5.75;1.70;;;;;;;32.90;21.37;99216.13;5172887;28;20050;-68
2022/08/12 09:53:16;;;;;;;1.63;1.52;;;;;;;33.58;22.22;99221.69;5172580;28;20695;-68
2022/08/12 09:56:20;;;;;;;2.10;1.70;;;;;;;33.95;21.30;99203.69;5182731;28;20523;-68
2022/08/12 09:59:34;;;;;;;3.10;1.58;;;;;;;33.97;20.51;99200.63;5175037;28;20083;-72
2022/08/12 10:03:20;;;;;;;2.25;1.50;;;;;;;33.41;21.75;99199.25;5174868;28;20056;-69
2022/08/12 10:06:24;;;;;;;3.20;1.60;;;;;;;31.26;22.42;99200.22;5167460;28;20050;-69
2022/08/12 10:09:25;;;;;;;2.70;1.70;;;;;;;32.63;22.10;99206.44;5174548;28;20061;-68
2022/08/12 10:15:59;;;;;;;3.25;1.42;;;;;;;33.58;21.10;99183.19;5171938;28;20056;-69
2022/08/12 10:18:56;;;;;;;5.88;1.98;;;;;;;33.53;22.09;99180.50;5181736;28;20088;-69
2022/08/12 10:21:46;;;;;;;3.50;1.60;;;;;;;34.07;21.51;99189.53;5169537;28;20056;-69
2022/08/12 10:29:35;;;;;;;1.88;1.65;;;;;;;34.56;21.20;99182.88;5175607;28;20484;-69
2022/08/12 10:31:18;;;;;;;6.20;1.48;;;;;;;34.06;20.15;99165.91;5173593;28;20073;-71
2022/08/12 10:34:08;;;;;;;2.35;1.70;;;;;;;34.73;20.18;99163.06;5181550;28;20045;-69
2022/08/12 10:37:13;;;;;;;3.60;1.90;;;;;;;32.37;21.42;99163.72;5177869;28;20478;-69
2022/08/12 10:40:24;;;;;;;2.63;1.50;;;;;;;33.38;20.71;99155.88;5172976;28;20141;-69
2022/08/12 10:43:41;;;;;;;2.83;1.60;;;;;;;33.68;20.06;99154.78;5177951;28;20207;-69
2022/08/12 10:46:46;;;;;;;2.33;1.55;;;;;;;33.87;20.28;99152.88;5177749;28;20072;-73
2022/08/12 10:49:38;;;;;;;1.83;1.43;;;;;;;33.68;20.39;99161.09;5177726;28;20049;-70
2022/08/12 10:52:49;;;;;;;2.58;1.73;;;;;;;31.34;22.66;99150.34;5189321;28;20064;-70
2022/08/12 10:55:41;;;;;;;2.50;1.50;;;;;;;33.36;22.10;99147.09;5180336;28;20064;-68
2022/08/12 10:58:35;;;;;;;3.03;1.92;;;;;;;33.16;21.27;99148.94;5175364;28;20538;-69
2022/08/12 11:01:27;;;;;;;1.70;1.30;;;;;;;32.49;21.34;99140.38;5172008;28;20072;-70
2022/08/12 11:04:38;;;;;;;1.95;1.30;;;;;;;31.80;21.18;99141.19;5170037;28;20046;-68
2022/08/12 11:07:39;;;;;;;2.55;2.05;;;;;;;32.81;21.21;99111.56;5196985;22;20052;-84
2022/08/12 11:10:50;;;;;;;4.10;1.60;;;;;;;32.91;20.87;99107.91;5224748;28;20048;-84
2022/08/12 11:13:40;;;;;;;3.90;1.48;;;;;;;33.55;21.64;99126.03;5214231;28;20079;-84
2022/08/12 11:16:38;;;;;;;5.00;1.40;;;;;;;33.83;20.17;99096.00;5224868;28;20436;-84
2022/08/12 11:19:48;;;;;;;5.10;1.58;;;;;;;34.31;20.42;99085.75;5203761;28;20063;-83
2022/08/12 11:22:38;;;;;;;2.80;1.40;;;;;;;34.02;20.02;99113.41;5212949;28;20056;-84
2022/08/12 11:25:29;;;;;;;2.38;1.30;;;;;;;33.27;20.86;99102.13;5224757;28;20430;-85
2022/08/12 11:28:39;;;;;;;5.45;1.35;;;;;;;33.84;20.97;99092.13;5190015;28;20045;-84
2022/08/12 11:31:30;;;;;;;2.03;1.15;;;;;;;34.25;20.13;99094.38;5221835;28;20079;-85
2022/08/12 11:34:40;;;;;;;9.23;1.23;;;;;;;33.10;20.37;99077.84;5220153;28;20060;-84
2022/08/12 11:37:43;;;;;;;3.13;1.52;;;;;;;32.32;21.07;99090.50;5215952;28;20499;-85
2022/08/12 11:40:48;;;;;;;5.90;1.40;;;;;;;33.19;20.69;99096.16;5206922;28;20044;-85
2022/08/12 11:43:39;;;;;;;1.40;1.30;;;;;;;33.01;20.12;99085.88;5212290;28;20053;-85
2022/08/12 11:46:49;;;;;;;1.63;1.20;;;;;;;33.50;19.98;99084.84;5207272;28;20048;-84
2022/08/12 11:49:42;;;;;;;3.13;1.50;;;;;;;33.48;20.33;99100.81;5210477;28;20049;-84
2022/08/12 11:52:41;;;;;;;2.05;1.30;;;;;;;33.31;20.61;99081.19;5216336;28;20110;-85
2022/08/12 11:55:45;;;;;;;4.00;1.15;;;;;;;32.63;20.76;99082.91;5211859;28;20128;-84
2022/08/12 11:58:36;;;;;;;2.55;1.27;;;;;;;31.77;21.62;99085.00;5204791;28;20049;-85
2022/08/12 12:01:46;;;;;;;3.92;1.35;;;;;;;31.32;22.14;99074.97;5218997;28;20060;-85
2022/08/12 12:04:53;;;;;;;1.33;1.23;;;;;;;31.99;20.91;99070.94;5220568;28;20181;-85
2022/08/12 12:07:44;;;;;;;2.17;1.38;;;;;;;31.98;21.45;99041.88;5219277;28;20760;-86
2022/08/12 12:10:54;;;;;;;1.33;1.20;;;;;;;32.25;20.89;99074.38;5212978;28;20129;-85
2022/08/12 12:13:48;;;;;;;1.50;1.17;;;;;;;32.34;21.51;99079.25;5218057;28;20056;-85
2022/08/12 12:16:57;;;;;;;1.85;1.27;;;;;;;32.66;20.73;99062.28;5237227;28;20103;-85
2022/08/12 12:19:49;;;;;;;2.80;1.45;;;;;;;32.57;20.18;99062.06;5230260;28;20056;-85
2022/08/12 12:22:41;;;;;;;3.33;1.00;;;;;;;33.17;19.93;99073.63;5233750;28;20432;-86
2022/08/12 12:25:34;;;;;;;2.38;1.33;;;;;;;31.43;20.77;99073.91;5210296;28;20526;-86
2022/08/12 12:28:45;;;;;;;5.35;1.40;;;;;;;31.03;21.45;99047.41;5209764;28;20045;-85
2022/08/12 12:31:43;;;;;;;5.47;1.30;;;;;;;30.73;22.26;99076.41;5216436;28;20138;-85
2022/08/12 12:34:54;;;;;;;2.40;1.45;;;;;;;30.99;22.51;99041.63;5219375;28;20186;-84
2022/08/12 12:38:07;;;;;;;2.58;1.33;;;;;;;31.20;22.57;99041.63;5205981;28;20041;-84
2022/08/12 12:41:02;;;;;;;1.45;1.35;;;;;;;31.55;22.40;99057.13;5204236;28;20127;-84
2022/08/12 12:44:08;;;;;;;;;;;;;;;32.28;21.38;99065.56;5201886;28;20418;-84
2022/08/12 12:47:02;;;;;;;4.90;1.48;;;;;;;31.07;22.08;99064.91;5218680;28;19947;-84
2022/08/12 12:50:15;;;;;;;1.23;1.13;;;;;;;30.58;22.77;99057.25;5203133;28;20619;-84
2022/08/12 12:53:25;;;;;;;1.90;1.20;;;;;;;31.15;22.22;99058.88;5212434;28;20080;-85
2022/08/12 12:56:41;;;;;;;1.73;1.40;;;;;;;30.98;21.58;99036.44;5208025;28;20063;-84
2022/08/12 12:59:33;;;;;;;2.22;1.45;;;;;;;30.79;23.03;99038.94;5221054;28;20040;-85
2022/08/12 13:02:52;;;;;;;5.63;1.25;;;;;;;31.16;21.61;99044.09;5215532;28;20080;-84
2022/08/12 13:05:43;;;;;;;2.10;1.25;;;;;;;30.94;22.24;99040.84;5208884;28;20056;-84
2022/08/12 13:08:44;;;;;;;1.98;1.30;;;;;;;31.23;22.31;99010.94;5215931;28;20102;-85
2022/08/12 13:11:36;;;;;;;2.33;1.30;;;;;;;31.65;21.39;99015.97;5212356;28;20052;-86
2022/08/12 13:14:33;;;;;;;1.65;1.15;;;;;;;31.76;21.16;99016.75;5211246;28;20842;-85
2022/08/12 13:17:30;;;;;;;2.10;1.23;;;;;;;31.78;21.74;99023.56;5214685;28;20083;-85
2022/08/12 13:20:43;;;;;;;4.93;1.25;;;;;;;31.92;20.42;99040.28;5225334;28;20099;-85
2022/08/12 13:23:34;;;;;;;1.30;1.20;;;;;;;31.33;21.05;99019.16;5229064;28;20134;-84
2022/08/12 13:26:31;;;;;;;1.60;1.15;;;;;;;30.41;21.72;99025.50;5214671;28;20135;-84
2022/08/12 13:29:23;;;;;;;5.78;1.70;;;;;;;30.94;21.09;99032.63;5209794;28;20045;-83
2022/08/12 13:32:14;;;;;;;2.95;1.60;;;;;;;30.57;21.74;99011.84;5223045;28;20049;-84
2022/08/12 13:35:08;;;;;;;;;;;;;;;30.59;21.73;99032.34;5212696;28;20056;-84
2022/08/12 13:38:09;;;;;;;2.13;1.27;;;;;;;30.57;22.12;99015.38;5215572;28;20112;-84
2022/08/12 13:41:01;;;;;;;1.33;1.20;;;;;;;30.64;22.52;99017.84;5212452;28;20416;-84
2022/08/12 13:43:51;;;;;;;1.67;1.30;;;;;;;30.61;22.83;99030.16;5211478;28;20055;-85
2022/08/12 13:46:42;;;;;;;1.67;1.25;;;;;;;30.71;21.65;99020.31;5212814;28;20049;-84
2022/08/12 13:49:51;;;;;;;3.67;1.17;;;;;;;31.06;22.30;99024.91;5216658;28;20495;-83
2022/08/12 13:52:45;;;;;;;1.65;1.33;;;;;;;31.15;22.51;99004.09;5217283;28;20052;-83
2022/08/12 13:55:39;;;;;;;1.45;1.10;;;;;;;31.05;20.98;98999.47;5237266;28;20054;-84
2022/08/12 13:58:33;;;;;;;1.42;1.08;;;;;;;31.38;22.71;99015.56;5211640;28;20044;-85
2022/08/12 14:01:23;;;;;;;1.45;1.05;;;;;;;31.80;20.85;99013.16;5213637;28;20057;-84
2022/08/12 14:04:14;;;;;;;2.22;0.90;;;;;;;31.22;21.04;99015.56;5224618;28;20052;-83
2022/08/12 14:07:07;;;;;;;1.40;1.20;;;;;;;31.34;20.80;98996.94;5223523;28;20084;-84
2022/08/12 14:13:09;;;;;;;1.98;1.23;;;;;;;31.44;20.93;99000.72;5228333;28;20053;-85
2022/08/12 14:16:20;;;;;;;1.20;1.10;;;;;;;30.71;21.29;98988.28;5208028;28;20188;-84
2022/08/12 14:19:31;;;;;;;2.25;1.30;;;;;;;30.66;21.82;99012.91;5204542;28;20126;-84
2022/08/12 14:22:28;;;;;;;2.55;1.20;;;;;;;30.72;22.27;99000.84;5215577;28;20083;-85
2022/08/12 14:25:39;;;;;;;1.70;1.10;;;;;;;30.99;21.51;99010.69;5209379;28;20057;-85
2022/08/12 14:28:33;;;;;;;1.67;1.23;;;;;;;30.75;22.47;98997.56;5210699;28;20131;-86
2022/08/12 14:31:23;;;;;;;4.82;1.10;;;;;;;30.77;22.63;98983.66;5217026;28;20437;-83
2022/08/12 14:34:21;;;;;;;2.75;1.30;;;;;;;31.07;22.23;99001.94;5217262;28;20518;-83
2022/08/12 14:37:18;;;;;;;6.85;1.30;;;;;;;31.43;22.09;99004.59;5204016;28;20072;-83
2022/08/12 14:40:29;;;;;;;3.55;1.15;;;;;;;30.81;21.44;98991.03;5217858;28;20461;-84
2022/08/12 14:43:19;;;;;;;2.47;1.23;;;;;;;31.13;22.57;98998.09;5218770;28;20052;-84
2022/08/12 14:46:19;;;;;;;3.72;1.25;;;;;;;31.00;21.98;98998.66;5231813;28;20144;-82
2022/08/12 14:49:11;;;;;;;2.03;1.20;;;;;;;30.64;22.48;98998.69;5219318;28;20048;-80
2022/08/12 14:52:23;;;;;;;3.05;1.13;;;;;;;30.46;22.67;99002.78;5234917;28;20179;-80
2022/08/12 14:55:33;;;;;;;3.20;1.30;;;;;;;30.06;22.91;99004.38;5234605;28;20282;-83
2022/08/12 15:02:19;;;;;;;1.30;1.20;;;;;;;29.83;23.12;98972.06;5231533;28;20250;-82
2022/08/12 15:05:09;;;;;;;3.45;1.00;;;;;;;30.15;22.82;98991.00;5216201;28;20114;-83
2022/08/12 15:08:27;;;;;;;1.10;1.00;;;;;;;30.05;23.12;99004.66;5235179;28;20049;-81
2022/08/12 15:11:17;;;;;;;1.83;1.27;;;;;;;30.31;22.90;99005.53;5237004;28;20469;-83
2022/08/12 15:14:10;;;;;;;2.83;1.23;;;;;;;30.53;22.49;98992.41;5234873;28;20072;-82
2022/08/12 15:17:05;;;;;;;4.85;1.08;;;;;;;30.55;22.75;98976.53;5221576;28;20343;-84
2022/08/12 15:19:55;;;;;;;2.85;1.38;;;;;;;30.50;22.01;98978.44;5201681;28;20319;-83
2022/08/12 15:23:10;;;;;;;6.38;1.48;;;;;;;30.66;21.95;98982.78;5231764;28;20103;-82
2022/08/12 15:26:12;;;;;;;2.92;1.17;;;;;;;30.18;23.12;98958.50;5233024;28;20099;-84
2022/08/12 15:29:16;;;;;;;1.35;1.17;;;;;;;30.20;22.46;98969.16;5220540;28;20098;-84
2022/08/12 15:32:07;;;;;;;1.55;1.20;;;;;;;30.17;22.44;98975.16;5223627;28;20045;-82
2022/08/12 15:35:06;;;;;;;2.80;1.10;;;;;;;30.29;22.53;98978.44;5210135;28;20056;-84
2022/08/12 15:38:10;;;;;;;1.77;0.82;;;;;;;29.96;22.89;98990.69;5237036;28;20066;-84
2022/08/12 15:41:14;;;;;;;2.10;1.20;;;;;;;29.65;23.39;98943.34;5224743;28;20135;-85
2022/08/12 15:44:05;;;;;;;5.05;1.30;;;;;;;29.20;22.82;98962.00;5205285;28;20143;-86
2022/08/12 15:47:24;;;;;;;2.70;1.35;;;;;;;29.63;22.79;98948.25;5226275;28;20053;-86
2022/08/12 15:50:24;;;;;;;1.50;1.30;;;;;;;29.50;23.24;98969.53;5210243;28;20467;-87